sensor_id;sensor_type;location;lat;lon;timestamp;P1;durP1;ratioP1;P2;durP2;ratioP2
25023;SDS011;13033;50.936;5.334;2022-08-05T00:02:25;9.70;;;5.50;;
25023;SDS011;13033;50.936;5.334;2022-08-05T00:04:50;11.27;;;5.53;;
25023;SDS011;13033;50.936;5.334;2022-08-05T00:07:16;9.10;;;5.30;;
25023;SDS011;13033;50.936;5.334;2022-08-05T00:09:41;9.57;;;5.30;;
25023;SDS011;13033;50.936;5.334;2022-08-05T00:12:07;5.82;;;5.05;;
25023;SDS011;13033;50.936;5.334;2022-08-05T00:14:33;10.23;;;5.82;;
25023;SDS011;13033;50.936;5.334;2022-08-05T00:16:58;8.35;;;5.68;;
25023;SDS011;13033;50.936;5.334;2022-08-05T00:19:24;7.70;;;5.65;;
25023;SDS011;13033;50.936;5.334;2022-08-05T00:21:50;10.48;;;5.95;;
25023;SDS011;13033;50.936;5.334;2022-08-05T00:24:16;8.52;;;5.60;;
25023;SDS011;13033;50.936;5.334;2022-08-05T00:26:42;9.10;;;5.68;;
25023;SDS011;13033;50.936;5.334;2022-08-05T00:29:07;7.75;;;5.40;;
25023;SDS011;13033;50.936;5.334;2022-08-05T00:31:33;7.95;;;5.55;;
25023;SDS011;13033;50.936;5.334;2022-08-05T00:33:59;10.68;;;5.47;;
25023;SDS011;13033;50.936;5.334;2022-08-05T00:36:24;7.65;;;5.47;;
25023;SDS011;13033;50.936;5.334;2022-08-05T00:38:50;9.38;;;5.70;;
25023;SDS011;13033;50.936;5.334;2022-08-05T00:41:25;8.48;;;5.53;;
25023;SDS011;13033;50.936;5.334;2022-08-05T00:43:55;8.82;;;5.85;;
25023;SDS011;13033;50.936;5.334;2022-08-05T00:46:21;7.32;;;5.70;;
25023;SDS011;13033;50.936;5.334;2022-08-05T00:48:47;10.27;;;6.00;;
25023;SDS011;13033;50.936;5.334;2022-08-05T00:51:13;9.00;;;6.28;;
25023;SDS011;13033;50.936;5.334;2022-08-05T00:53:39;10.57;;;6.05;;
25023;SDS011;13033;50.936;5.334;2022-08-05T00:56:05;9.18;;;6.50;;
25023;SDS011;13033;50.936;5.334;2022-08-05T00:58:31;10.90;;;6.65;;
25023;SDS011;13033;50.936;5.334;2022-08-05T01:00:57;10.05;;;6.15;;
25023;SDS011;13033;50.936;5.334;2022-08-05T01:03:23;8.27;;;6.45;;
25023;SDS011;13033;50.936;5.334;2022-08-05T01:05:50;12.27;;;7.68;;
25023;SDS011;13033;50.936;5.334;2022-08-05T01:08:16;22.92;;;8.70;;
25023;SDS011;13033;50.936;5.334;2022-08-05T01:10:50;16.60;;;7.78;;
25023;SDS011;13033;50.936;5.334;2022-08-05T01:15:52;18.47;;;8.90;;
25023;SDS011;13033;50.936;5.334;2022-08-05T01:18:24;16.13;;;9.05;;
25023;SDS011;13033;50.936;5.334;2022-08-05T01:29:18;15.77;;;10.02;;
25023;SDS011;13033;50.936;5.334;2022-08-05T01:31:49;16.95;;;10.57;;
25023;SDS011;13033;50.936;5.334;2022-08-05T01:34:20;18.05;;;11.02;;
25023;SDS011;13033;50.936;5.334;2022-08-05T01:36:52;19.25;;;11.13;;
25023;SDS011;13033;50.936;5.334;2022-08-05T01:39:31;18.35;;;10.43;;
25023;SDS011;13033;50.936;5.334;2022-08-05T01:42:00;16.83;;;9.45;;
25023;SDS011;13033;50.936;5.334;2022-08-05T01:44:27;18.52;;;9.45;;
25023;SDS011;13033;50.936;5.334;2022-08-05T01:46:54;11.05;;;8.43;;
25023;SDS011;13033;50.936;5.334;2022-08-05T01:49:20;14.70;;;9.13;;
25023;SDS011;13033;50.936;5.334;2022-08-05T01:51:48;13.00;;;9.25;;
25023;SDS011;13033;50.936;5.334;2022-08-05T01:54:16;13.77;;;9.32;;
25023;SDS011;13033;50.936;5.334;2022-08-05T01:56:44;16.63;;;9.95;;
25023;SDS011;13033;50.936;5.334;2022-08-05T01:59:12;13.75;;;9.57;;
25023;SDS011;13033;50.936;5.334;2022-08-05T02:01:41;13.80;;;8.07;;
25023;SDS011;13033;50.936;5.334;2022-08-05T02:04:09;11.05;;;8.25;;
25023;SDS011;13033;50.936;5.334;2022-08-05T02:06:36;13.95;;;8.80;;
25023;SDS011;13033;50.936;5.334;2022-08-05T02:09:03;13.05;;;9.20;;
25023;SDS011;13033;50.936;5.334;2022-08-05T02:11:33;14.40;;;8.77;;
25023;SDS011;13033;50.936;5.334;2022-08-05T02:14:26;14.32;;;9.80;;
25023;SDS011;13033;50.936;5.334;2022-08-05T02:16:57;11.60;;;8.48;;
25023;SDS011;13033;50.936;5.334;2022-08-05T02:19:42;17.27;;;9.82;;
25023;SDS011;13033;50.936;5.334;2022-08-05T02:22:21;12.77;;;8.63;;
25023;SDS011;13033;50.936;5.334;2022-08-05T02:24:57;12.77;;;9.23;;
25023;SDS011;13033;50.936;5.334;2022-08-05T02:27:27;14.50;;;9.18;;
25023;SDS011;13033;50.936;5.334;2022-08-05T02:29:57;13.75;;;8.48;;
25023;SDS011;13033;50.936;5.334;2022-08-05T02:32:24;13.40;;;9.10;;
25023;SDS011;13033;50.936;5.334;2022-08-05T02:34:54;11.35;;;8.18;;
25023;SDS011;13033;50.936;5.334;2022-08-05T02:37:22;13.15;;;7.78;;
25023;SDS011;13033;50.936;5.334;2022-08-05T02:39:48;10.98;;;8.45;;
25023;SDS011;13033;50.936;5.334;2022-08-05T02:42:15;11.77;;;8.23;;
25023;SDS011;13033;50.936;5.334;2022-08-05T02:44:42;11.07;;;7.82;;
25023;SDS011;13033;50.936;5.334;2022-08-05T02:47:09;15.27;;;7.95;;
25023;SDS011;13033;50.936;5.334;2022-08-05T02:49:38;12.30;;;7.65;;
25023;SDS011;13033;50.936;5.334;2022-08-05T02:52:09;12.43;;;8.13;;
25023;SDS011;13033;50.936;5.334;2022-08-05T02:54:37;11.70;;;7.38;;
25023;SDS011;13033;50.936;5.334;2022-08-05T02:57:06;14.73;;;8.38;;
25023;SDS011;13033;50.936;5.334;2022-08-05T02:59:34;12.73;;;8.40;;
25023;SDS011;13033;50.936;5.334;2022-08-05T03:02:00;12.27;;;8.68;;
25023;SDS011;13033;50.936;5.334;2022-08-05T03:04:26;12.27;;;8.02;;
25023;SDS011;13033;50.936;5.334;2022-08-05T03:06:53;12.85;;;8.32;;
25023;SDS011;13033;50.936;5.334;2022-08-05T03:09:19;13.50;;;9.27;;
25023;SDS011;13033;50.936;5.334;2022-08-05T03:11:45;11.05;;;8.98;;
25023;SDS011;13033;50.936;5.334;2022-08-05T03:14:11;16.92;;;9.00;;
25023;SDS011;13033;50.936;5.334;2022-08-05T03:16:36;14.88;;;8.80;;
25023;SDS011;13033;50.936;5.334;2022-08-05T03:19:02;11.75;;;9.10;;
25023;SDS011;13033;50.936;5.334;2022-08-05T03:21:28;12.95;;;8.70;;
25023;SDS011;13033;50.936;5.334;2022-08-05T03:23:54;12.32;;;8.55;;
25023;SDS011;13033;50.936;5.334;2022-08-05T03:26:21;12.65;;;9.07;;
25023;SDS011;13033;50.936;5.334;2022-08-05T03:28:46;13.90;;;8.98;;
25023;SDS011;13033;50.936;5.334;2022-08-05T03:31:12;17.23;;;9.40;;
25023;SDS011;13033;50.936;5.334;2022-08-05T03:33:38;14.63;;;10.00;;
25023;SDS011;13033;50.936;5.334;2022-08-05T03:36:05;10.60;;;8.70;;
25023;SDS011;13033;50.936;5.334;2022-08-05T03:38:31;15.38;;;8.73;;
25023;SDS011;13033;50.936;5.334;2022-08-05T03:40:56;13.38;;;9.40;;
25023;SDS011;13033;50.936;5.334;2022-08-05T03:43:22;12.05;;;9.32;;
25023;SDS011;13033;50.936;5.334;2022-08-05T03:45:51;15.15;;;9.88;;
25023;SDS011;13033;50.936;5.334;2022-08-05T03:48:20;13.82;;;9.45;;
25023;SDS011;13033;50.936;5.334;2022-08-05T03:53:40;11.88;;;9.68;;
25023;SDS011;13033;50.936;5.334;2022-08-05T03:56:23;13.07;;;8.70;;
25023;SDS011;13033;50.936;5.334;2022-08-05T03:59:16;13.63;;;9.27;;
25023;SDS011;13033;50.936;5.334;2022-08-05T04:01:48;12.60;;;10.45;;
25023;SDS011;13033;50.936;5.334;2022-08-05T04:04:15;14.85;;;10.55;;
25023;SDS011;13033;50.936;5.334;2022-08-05T04:06:43;15.63;;;9.82;;
25023;SDS011;13033;50.936;5.334;2022-08-05T04:09:10;22.85;;;10.48;;
25023;SDS011;13033;50.936;5.334;2022-08-05T04:11:37;14.85;;;10.15;;
25023;SDS011;13033;50.936;5.334;2022-08-05T04:14:03;18.40;;;11.32;;
25023;SDS011;13033;50.936;5.334;2022-08-05T04:16:31;14.35;;;10.20;;
25023;SDS011;13033;50.936;5.334;2022-08-05T04:18:57;15.73;;;10.65;;
25023;SDS011;13033;50.936;5.334;2022-08-05T04:21:23;17.23;;;10.93;;
25023;SDS011;13033;50.936;5.334;2022-08-05T04:23:49;12.23;;;10.50;;
25023;SDS011;13033;50.936;5.334;2022-08-05T04:26:14;17.23;;;11.30;;
25023;SDS011;13033;50.936;5.334;2022-08-05T04:28:40;17.92;;;10.80;;
25023;SDS011;13033;50.936;5.334;2022-08-05T04:31:05;16.42;;;12.00;;
25023;SDS011;13033;50.936;5.334;2022-08-05T04:33:31;18.27;;;11.50;;
25023;SDS011;13033;50.936;5.334;2022-08-05T04:35:57;15.18;;;10.95;;
25023;SDS011;13033;50.936;5.334;2022-08-05T04:38:22;14.73;;;10.88;;
25023;SDS011;13033;50.936;5.334;2022-08-05T04:40:48;19.77;;;11.38;;
25023;SDS011;13033;50.936;5.334;2022-08-05T04:43:14;14.18;;;10.00;;
25023;SDS011;13033;50.936;5.334;2022-08-05T04:45:40;15.45;;;11.02;;
25023;SDS011;13033;50.936;5.334;2022-08-05T04:48:14;17.42;;;11.52;;
25023;SDS011;13033;50.936;5.334;2022-08-05T04:50:41;16.90;;;11.90;;
25023;SDS011;13033;50.936;5.334;2022-08-05T04:53:11;16.58;;;11.32;;
25023;SDS011;13033;50.936;5.334;2022-08-05T04:55:37;20.42;;;12.10;;
25023;SDS011;13033;50.936;5.334;2022-08-05T04:58:04;14.27;;;11.98;;
25023;SDS011;13033;50.936;5.334;2022-08-05T05:00:31;16.45;;;11.57;;
25023;SDS011;13033;50.936;5.334;2022-08-05T05:02:58;15.18;;;11.55;;
25023;SDS011;13033;50.936;5.334;2022-08-05T05:05:24;19.42;;;11.75;;
25023;SDS011;13033;50.936;5.334;2022-08-05T05:07:50;14.95;;;11.55;;
25023;SDS011;13033;50.936;5.334;2022-08-05T05:10:16;15.70;;;12.50;;
25023;SDS011;13033;50.936;5.334;2022-08-05T05:12:41;19.80;;;12.60;;
25023;SDS011;13033;50.936;5.334;2022-08-05T05:15:07;18.20;;;12.07;;
25023;SDS011;13033;50.936;5.334;2022-08-05T05:17:40;18.67;;;12.48;;
25023;SDS011;13033;50.936;5.334;2022-08-05T05:20:08;17.33;;;13.25;;
25023;SDS011;13033;50.936;5.334;2022-08-05T05:22:34;19.67;;;13.68;;
25023;SDS011;13033;50.936;5.334;2022-08-05T05:25:00;19.15;;;13.55;;
25023;SDS011;13033;50.936;5.334;2022-08-05T05:27:27;18.15;;;13.07;;
25023;SDS011;13033;50.936;5.334;2022-08-05T05:29:54;18.50;;;13.20;;
25023;SDS011;13033;50.936;5.334;2022-08-05T05:32:20;14.27;;;12.70;;
25023;SDS011;13033;50.936;5.334;2022-08-05T05:34:45;16.25;;;12.88;;
25023;SDS011;13033;50.936;5.334;2022-08-05T05:37:11;19.38;;;12.38;;
25023;SDS011;13033;50.936;5.334;2022-08-05T05:39:37;17.40;;;12.60;;
25023;SDS011;13033;50.936;5.334;2022-08-05T05:42:03;17.88;;;12.25;;
25023;SDS011;13033;50.936;5.334;2022-08-05T05:44:28;16.17;;;12.82;;
25023;SDS011;13033;50.936;5.334;2022-08-05T05:46:54;15.85;;;11.90;;
25023;SDS011;13033;50.936;5.334;2022-08-05T05:49:19;16.02;;;11.88;;
25023;SDS011;13033;50.936;5.334;2022-08-05T05:51:45;15.40;;;12.00;;
25023;SDS011;13033;50.936;5.334;2022-08-05T05:54:11;16.15;;;11.07;;
25023;SDS011;13033;50.936;5.334;2022-08-05T05:56:36;12.85;;;9.25;;
25023;SDS011;13033;50.936;5.334;2022-08-05T05:59:03;14.30;;;9.90;;
25023;SDS011;13033;50.936;5.334;2022-08-05T06:01:30;13.60;;;9.65;;
25023;SDS011;13033;50.936;5.334;2022-08-05T06:03:56;15.23;;;10.63;;
25023;SDS011;13033;50.936;5.334;2022-08-05T06:06:22;14.85;;;10.65;;
25023;SDS011;13033;50.936;5.334;2022-08-05T06:08:47;15.20;;;10.48;;
25023;SDS011;13033;50.936;5.334;2022-08-05T06:11:13;14.73;;;9.48;;
25023;SDS011;13033;50.936;5.334;2022-08-05T06:13:38;15.55;;;9.75;;
25023;SDS011;13033;50.936;5.334;2022-08-05T06:16:04;15.00;;;10.70;;
25023;SDS011;13033;50.936;5.334;2022-08-05T06:18:30;13.02;;;9.95;;
25023;SDS011;13033;50.936;5.334;2022-08-05T06:20:56;14.07;;;9.75;;
25023;SDS011;13033;50.936;5.334;2022-08-05T06:23:21;13.73;;;10.43;;
25023;SDS011;13033;50.936;5.334;2022-08-05T06:25:47;16.13;;;10.30;;
25023;SDS011;13033;50.936;5.334;2022-08-05T06:28:13;14.73;;;10.13;;
25023;SDS011;13033;50.936;5.334;2022-08-05T06:30:38;15.27;;;10.93;;
25023;SDS011;13033;50.936;5.334;2022-08-05T06:33:04;15.00;;;10.10;;
25023;SDS011;13033;50.936;5.334;2022-08-05T06:35:29;16.88;;;9.93;;
25023;SDS011;13033;50.936;5.334;2022-08-05T06:37:55;14.52;;;9.25;;
25023;SDS011;13033;50.936;5.334;2022-08-05T06:40:21;16.27;;;9.98;;
25023;SDS011;13033;50.936;5.334;2022-08-05T06:42:49;13.93;;;9.02;;
25023;SDS011;13033;50.936;5.334;2022-08-05T06:45:15;11.75;;;9.32;;
25023;SDS011;13033;50.936;5.334;2022-08-05T06:47:41;12.55;;;9.73;;
25023;SDS011;13033;50.936;5.334;2022-08-05T06:50:08;11.80;;;9.13;;
25023;SDS011;13033;50.936;5.334;2022-08-05T06:52:33;12.75;;;9.55;;
25023;SDS011;13033;50.936;5.334;2022-08-05T06:54:59;18.75;;;10.45;;
25023;SDS011;13033;50.936;5.334;2022-08-05T06:57:25;16.23;;;10.93;;
25023;SDS011;13033;50.936;5.334;2022-08-05T06:59:50;17.38;;;11.40;;
25023;SDS011;13033;50.936;5.334;2022-08-05T07:02:16;17.50;;;10.77;;
25023;SDS011;13033;50.936;5.334;2022-08-05T07:04:41;11.57;;;9.40;;
25023;SDS011;13033;50.936;5.334;2022-08-05T07:07:07;14.77;;;10.40;;
25023;SDS011;13033;50.936;5.334;2022-08-05T07:09:33;17.02;;;10.05;;
25023;SDS011;13033;50.936;5.334;2022-08-05T07:11:58;13.05;;;8.30;;
25023;SDS011;13033;50.936;5.334;2022-08-05T07:14:24;11.00;;;8.63;;
25023;SDS011;13033;50.936;5.334;2022-08-05T07:17:08;17.67;;;8.57;;
25023;SDS011;13033;50.936;5.334;2022-08-05T07:19:34;9.15;;;7.57;;
25023;SDS011;13033;50.936;5.334;2022-08-05T07:22:00;13.40;;;7.43;;
25023;SDS011;13033;50.936;5.334;2022-08-05T07:24:25;11.32;;;7.20;;
25023;SDS011;13033;50.936;5.334;2022-08-05T07:26:51;13.43;;;7.68;;
25023;SDS011;13033;50.936;5.334;2022-08-05T07:29:17;11.23;;;7.22;;
25023;SDS011;13033;50.936;5.334;2022-08-05T07:31:42;9.95;;;6.72;;
25023;SDS011;13033;50.936;5.334;2022-08-05T07:34:08;15.13;;;7.13;;
25023;SDS011;13033;50.936;5.334;2022-08-05T07:36:34;13.75;;;7.40;;
25023;SDS011;13033;50.936;5.334;2022-08-05T07:39:00;13.85;;;7.68;;
25023;SDS011;13033;50.936;5.334;2022-08-05T07:41:27;11.05;;;7.80;;
25023;SDS011;13033;50.936;5.334;2022-08-05T07:43:54;13.32;;;8.02;;
25023;SDS011;13033;50.936;5.334;2022-08-05T07:46:21;13.32;;;7.97;;
25023;SDS011;13033;50.936;5.334;2022-08-05T07:48:46;12.40;;;8.27;;
25023;SDS011;13033;50.936;5.334;2022-08-05T07:51:12;11.45;;;7.88;;
25023;SDS011;13033;50.936;5.334;2022-08-05T07:53:40;12.95;;;8.20;;
25023;SDS011;13033;50.936;5.334;2022-08-05T07:56:06;10.52;;;7.90;;
25023;SDS011;13033;50.936;5.334;2022-08-05T07:58:32;11.93;;;7.93;;
25023;SDS011;13033;50.936;5.334;2022-08-05T08:00:57;15.13;;;7.50;;
25023;SDS011;13033;50.936;5.334;2022-08-05T08:03:26;10.38;;;7.30;;
25023;SDS011;13033;50.936;5.334;2022-08-05T08:05:52;12.15;;;7.30;;
25023;SDS011;13033;50.936;5.334;2022-08-05T08:08:18;14.75;;;6.75;;
25023;SDS011;13033;50.936;5.334;2022-08-05T08:10:44;12.27;;;6.40;;
25023;SDS011;13033;50.936;5.334;2022-08-05T08:13:10;11.50;;;6.85;;
25023;SDS011;13033;50.936;5.334;2022-08-05T08:15:35;16.27;;;6.82;;
25023;SDS011;13033;50.936;5.334;2022-08-05T08:18:01;12.68;;;6.38;;
25023;SDS011;13033;50.936;5.334;2022-08-05T08:20:27;13.60;;;6.45;;
25023;SDS011;13033;50.936;5.334;2022-08-05T08:22:54;14.57;;;6.97;;
25023;SDS011;13033;50.936;5.334;2022-08-05T08:25:21;15.82;;;7.07;;
25023;SDS011;13033;50.936;5.334;2022-08-05T08:27:47;14.48;;;7.40;;
25023;SDS011;13033;50.936;5.334;2022-08-05T08:30:14;14.60;;;6.78;;
25023;SDS011;13033;50.936;5.334;2022-08-05T08:32:40;12.93;;;6.70;;
25023;SDS011;13033;50.936;5.334;2022-08-05T08:35:06;14.68;;;6.53;;
25023;SDS011;13033;50.936;5.334;2022-08-05T08:37:32;13.23;;;6.50;;
25023;SDS011;13033;50.936;5.334;2022-08-05T08:39:58;13.00;;;6.28;;
25023;SDS011;13033;50.936;5.334;2022-08-05T08:42:23;11.93;;;7.15;;
25023;SDS011;13033;50.936;5.334;2022-08-05T08:44:52;9.73;;;6.63;;
25023;SDS011;13033;50.936;5.334;2022-08-05T08:47:23;11.05;;;6.95;;
25023;SDS011;13033;50.936;5.334;2022-08-05T08:49:51;14.50;;;8.60;;
25023;SDS011;13033;50.936;5.334;2022-08-05T08:52:52;14.23;;;7.90;;
25023;SDS011;13033;50.936;5.334;2022-08-05T08:55:12;10.52;;;8.07;;
25023;SDS011;13033;50.936;5.334;2022-08-05T08:57:37;11.85;;;7.68;;
25023;SDS011;13033;50.936;5.334;2022-08-05T09:00:03;10.40;;;7.35;;
25023;SDS011;13033;50.936;5.334;2022-08-05T09:02:29;13.65;;;7.68;;
25023;SDS011;13033;50.936;5.334;2022-08-05T09:04:56;12.35;;;7.25;;
25023;SDS011;13033;50.936;5.334;2022-08-05T09:07:21;11.20;;;7.50;;
25023;SDS011;13033;50.936;5.334;2022-08-05T09:09:47;12.27;;;7.97;;
25023;SDS011;13033;50.936;5.334;2022-08-05T09:12:12;12.48;;;8.43;;
25023;SDS011;13033;50.936;5.334;2022-08-05T09:14:38;13.60;;;7.50;;
25023;SDS011;13033;50.936;5.334;2022-08-05T09:17:05;10.77;;;7.10;;
25023;SDS011;13033;50.936;5.334;2022-08-05T09:19:32;11.82;;;6.75;;
25023;SDS011;13033;50.936;5.334;2022-08-05T09:21:59;11.70;;;8.35;;
25023;SDS011;13033;50.936;5.334;2022-08-05T09:24:25;13.30;;;7.60;;
25023;SDS011;13033;50.936;5.334;2022-08-05T09:26:51;14.85;;;8.10;;
25023;SDS011;13033;50.936;5.334;2022-08-05T09:29:20;11.75;;;7.07;;
25023;SDS011;13033;50.936;5.334;2022-08-05T09:32:05;9.93;;;7.45;;
25023;SDS011;13033;50.936;5.334;2022-08-05T09:37:21;12.27;;;7.55;;
25023;SDS011;13033;50.936;5.334;2022-08-05T09:39:48;14.20;;;7.40;;
25023;SDS011;13033;50.936;5.334;2022-08-05T09:42:15;9.25;;;6.97;;
25023;SDS011;13033;50.936;5.334;2022-08-05T09:44:45;10.80;;;7.28;;
25023;SDS011;13033;50.936;5.334;2022-08-05T09:47:16;14.07;;;7.90;;
25023;SDS011;13033;50.936;5.334;2022-08-05T09:49:47;10.60;;;6.07;;
25023;SDS011;13033;50.936;5.334;2022-08-05T09:52:18;11.13;;;5.78;;
25023;SDS011;13033;50.936;5.334;2022-08-05T09:57:44;10.00;;;5.63;;
25023;SDS011;13033;50.936;5.334;2022-08-05T10:02:45;12.82;;;5.93;;
25023;SDS011;13033;50.936;5.334;2022-08-05T10:05:25;10.93;;;5.38;;
25023;SDS011;13033;50.936;5.334;2022-08-05T10:10:26;10.23;;;5.28;;
25023;SDS011;13033;50.936;5.334;2022-08-05T10:12:57;9.60;;;4.80;;
25023;SDS011;13033;50.936;5.334;2022-08-05T10:15:25;9.00;;;5.57;;
25023;SDS011;13033;50.936;5.334;2022-08-05T10:20:29;10.25;;;6.20;;
25023;SDS011;13033;50.936;5.334;2022-08-05T10:22:56;7.68;;;5.72;;
25023;SDS011;13033;50.936;5.334;2022-08-05T10:25:25;10.55;;;5.97;;
25023;SDS011;13033;50.936;5.334;2022-08-05T10:27:51;8.63;;;5.40;;
25023;SDS011;13033;50.936;5.334;2022-08-05T10:30:18;8.57;;;5.70;;
25023;SDS011;13033;50.936;5.334;2022-08-05T10:32:44;11.23;;;5.63;;
25023;SDS011;13033;50.936;5.334;2022-08-05T10:35:11;7.28;;;4.47;;
25023;SDS011;13033;50.936;5.334;2022-08-05T10:37:38;7.75;;;4.07;;
25023;SDS011;13033;50.936;5.334;2022-08-05T10:40:04;6.05;;;3.58;;
25023;SDS011;13033;50.936;5.334;2022-08-05T10:42:38;5.70;;;3.38;;
25023;SDS011;13033;50.936;5.334;2022-08-05T10:45:06;4.60;;;3.00;;
25023;SDS011;13033;50.936;5.334;2022-08-05T10:47:33;6.28;;;3.15;;
25023;SDS011;13033;50.936;5.334;2022-08-05T10:52:49;8.27;;;3.50;;
25023;SDS011;13033;50.936;5.334;2022-08-05T10:55:21;4.93;;;3.33;;
25023;SDS011;13033;50.936;5.334;2022-08-05T10:57:47;5.38;;;2.80;;
25023;SDS011;13033;50.936;5.334;2022-08-05T11:00:22;5.53;;;3.00;;
25023;SDS011;13033;50.936;5.334;2022-08-05T11:05:38;6.63;;;2.90;;
25023;SDS011;13033;50.936;5.334;2022-08-05T11:08:05;6.00;;;3.15;;
25023;SDS011;13033;50.936;5.334;2022-08-05T11:10:34;6.30;;;2.60;;
25023;SDS011;13033;50.936;5.334;2022-08-05T11:13:04;4.70;;;1.98;;
25023;SDS011;13033;50.936;5.334;2022-08-05T11:15:31;5.28;;;2.33;;
25023;SDS011;13033;50.936;5.334;2022-08-05T11:20:53;6.40;;;2.33;;
25023;SDS011;13033;50.936;5.334;2022-08-05T11:28:36;8.15;;;2.40;;
25023;SDS011;13033;50.936;5.334;2022-08-05T11:33:37;7.78;;;2.28;;
25023;SDS011;13033;50.936;5.334;2022-08-05T11:39:08;4.85;;;2.40;;
25023;SDS011;13033;50.936;5.334;2022-08-05T11:41:37;5.50;;;2.38;;
25023;SDS011;13033;50.936;5.334;2022-08-05T11:47:03;7.80;;;2.28;;
25023;SDS011;13033;50.936;5.334;2022-08-05T11:49:22;5.50;;;2.03;;
25023;SDS011;13033;50.936;5.334;2022-08-05T11:51:49;7.25;;;2.50;;
25023;SDS011;13033;50.936;5.334;2022-08-05T11:54:24;4.07;;;1.75;;
25023;SDS011;13033;50.936;5.334;2022-08-05T11:56:52;9.00;;;2.05;;
25023;SDS011;13033;50.936;5.334;2022-08-05T11:59:20;3.78;;;1.55;;
25023;SDS011;13033;50.936;5.334;2022-08-05T12:01:51;4.10;;;1.73;;
25023;SDS011;13033;50.936;5.334;2022-08-05T12:04:18;5.70;;;1.55;;
25023;SDS011;13033;50.936;5.334;2022-08-05T12:06:43;5.45;;;1.42;;
25023;SDS011;13033;50.936;5.334;2022-08-05T12:09:09;2.17;;;1.30;;
25023;SDS011;13033;50.936;5.334;2022-08-05T12:11:35;4.45;;;1.50;;
25023;SDS011;13033;50.936;5.334;2022-08-05T12:14:05;3.00;;;1.42;;
25023;SDS011;13033;50.936;5.334;2022-08-05T12:16:50;6.93;;;1.67;;
25023;SDS011;13033;50.936;5.334;2022-08-05T12:19:16;4.65;;;1.50;;
25023;SDS011;13033;50.936;5.334;2022-08-05T12:24:09;3.75;;;1.60;;
25023;SDS011;13033;50.936;5.334;2022-08-05T12:26:48;5.22;;;1.60;;
25023;SDS011;13033;50.936;5.334;2022-08-05T12:29:19;6.22;;;1.50;;
25023;SDS011;13033;50.936;5.334;2022-08-05T12:31:51;4.43;;;1.48;;
25023;SDS011;13033;50.936;5.334;2022-08-05T12:34:23;6.03;;;1.60;;
25023;SDS011;13033;50.936;5.334;2022-08-05T12:36:55;1.95;;;1.10;;
25023;SDS011;13033;50.936;5.334;2022-08-05T12:39:22;2.40;;;1.08;;
25023;SDS011;13033;50.936;5.334;2022-08-05T12:41:48;4.43;;;1.38;;
25023;SDS011;13033;50.936;5.334;2022-08-05T12:44:15;6.10;;;1.52;;
25023;SDS011;13033;50.936;5.334;2022-08-05T12:46:42;4.35;;;1.30;;
25023;SDS011;13033;50.936;5.334;2022-08-05T12:49:16;3.95;;;1.63;;
25023;SDS011;13033;50.936;5.334;2022-08-05T12:52:16;3.55;;;1.50;;
25023;SDS011;13033;50.936;5.334;2022-08-05T12:54:41;3.10;;;1.33;;
25023;SDS011;13033;50.936;5.334;2022-08-05T12:57:09;2.40;;;1.10;;
25023;SDS011;13033;50.936;5.334;2022-08-05T13:02:11;2.25;;;1.30;;
25023;SDS011;13033;50.936;5.334;2022-08-05T13:04:40;2.30;;;1.30;;
25023;SDS011;13033;50.936;5.334;2022-08-05T13:07:09;6.50;;;1.50;;
25023;SDS011;13033;50.936;5.334;2022-08-05T13:09:37;6.40;;;1.58;;
25023;SDS011;13033;50.936;5.334;2022-08-05T13:12:12;4.10;;;1.23;;
25023;SDS011;13033;50.936;5.334;2022-08-05T13:14:46;4.43;;;1.40;;
25023;SDS011;13033;50.936;5.334;2022-08-05T13:17:31;6.38;;;1.50;;
25023;SDS011;13033;50.936;5.334;2022-08-05T13:22:31;5.65;;;1.10;;
25023;SDS011;13033;50.936;5.334;2022-08-05T13:25:00;7.50;;;1.30;;
25023;SDS011;13033;50.936;5.334;2022-08-05T13:27:28;3.28;;;1.10;;
25023;SDS011;13033;50.936;5.334;2022-08-05T13:29:56;2.83;;;1.08;;
25023;SDS011;13033;50.936;5.334;2022-08-05T13:32:21;5.38;;;1.40;;
25023;SDS011;13033;50.936;5.334;2022-08-05T13:34:47;4.78;;;1.30;;
25023;SDS011;13033;50.936;5.334;2022-08-05T13:37:15;3.65;;;1.13;;
25023;SDS011;13033;50.936;5.334;2022-08-05T13:39:41;2.97;;;1.23;;
25023;SDS011;13033;50.936;5.334;2022-08-05T13:42:07;5.35;;;1.20;;
25023;SDS011;13033;50.936;5.334;2022-08-05T13:44:34;3.60;;;1.23;;
25023;SDS011;13033;50.936;5.334;2022-08-05T13:46:59;3.90;;;1.30;;
25023;SDS011;13033;50.936;5.334;2022-08-05T13:49:25;3.13;;;1.20;;
25023;SDS011;13033;50.936;5.334;2022-08-05T13:51:51;5.15;;;1.20;;
25023;SDS011;13033;50.936;5.334;2022-08-05T13:54:16;3.92;;;1.23;;
25023;SDS011;13033;50.936;5.334;2022-08-05T13:56:44;6.40;;;1.50;;
25023;SDS011;13033;50.936;5.334;2022-08-05T13:59:09;2.60;;;1.40;;
25023;SDS011;13033;50.936;5.334;2022-08-05T14:01:35;5.50;;;1.10;;
25023;SDS011;13033;50.936;5.334;2022-08-05T14:04:01;5.13;;;1.17;;
25023;SDS011;13033;50.936;5.334;2022-08-05T14:06:45;5.05;;;1.08;;
25023;SDS011;13033;50.936;5.334;2022-08-05T14:09:14;4.15;;;1.10;;
25023;SDS011;13033;50.936;5.334;2022-08-05T14:14:08;2.13;;;1.10;;
25023;SDS011;13033;50.936;5.334;2022-08-05T14:16:34;3.55;;;1.15;;
25023;SDS011;13033;50.936;5.334;2022-08-05T14:19:00;3.95;;;1.27;;
25023;SDS011;13033;50.936;5.334;2022-08-05T14:21:25;3.40;;;1.27;;
25023;SDS011;13033;50.936;5.334;2022-08-05T14:23:51;4.50;;;1.23;;
25023;SDS011;13033;50.936;5.334;2022-08-05T14:26:17;4.68;;;1.00;;
25023;SDS011;13033;50.936;5.334;2022-08-05T14:28:43;7.13;;;0.90;;
25023;SDS011;13033;50.936;5.334;2022-08-05T14:31:09;4.90;;;0.98;;
25023;SDS011;13033;50.936;5.334;2022-08-05T14:33:35;2.15;;;0.98;;
25023;SDS011;13033;50.936;5.334;2022-08-05T14:36:01;5.13;;;1.00;;
25023;SDS011;13033;50.936;5.334;2022-08-05T14:38:28;4.75;;;1.10;;
25023;SDS011;13033;50.936;5.334;2022-08-05T14:40:54;3.03;;;0.95;;
25023;SDS011;13033;50.936;5.334;2022-08-05T14:43:20;1.95;;;1.00;;
25023;SDS011;13033;50.936;5.334;2022-08-05T14:45:45;2.83;;;0.90;;
25023;SDS011;13033;50.936;5.334;2022-08-05T14:48:11;2.13;;;0.80;;
25023;SDS011;13033;50.936;5.334;2022-08-05T14:50:37;4.82;;;0.95;;
25023;SDS011;13033;50.936;5.334;2022-08-05T14:53:02;2.92;;;0.80;;
25023;SDS011;13033;50.936;5.334;2022-08-05T14:55:28;2.40;;;0.90;;
25023;SDS011;13033;50.936;5.334;2022-08-05T14:57:54;3.42;;;0.85;;
25023;SDS011;13033;50.936;5.334;2022-08-05T15:00:19;4.55;;;0.80;;
25023;SDS011;13033;50.936;5.334;2022-08-05T15:02:45;2.78;;;0.90;;
25023;SDS011;13033;50.936;5.334;2022-08-05T15:05:14;3.80;;;0.88;;
25023;SDS011;13033;50.936;5.334;2022-08-05T15:07:39;3.15;;;0.80;;
25023;SDS011;13033;50.936;5.334;2022-08-05T15:10:05;2.08;;;0.80;;
25023;SDS011;13033;50.936;5.334;2022-08-05T15:12:31;2.05;;;0.80;;
25023;SDS011;13033;50.936;5.334;2022-08-05T15:14:57;3.28;;;1.00;;
25023;SDS011;13033;50.936;5.334;2022-08-05T15:17:23;2.08;;;0.70;;
25023;SDS011;13033;50.936;5.334;2022-08-05T15:19:49;3.75;;;1.02;;
25023;SDS011;13033;50.936;5.334;2022-08-05T15:22:15;2.30;;;0.80;;
25023;SDS011;13033;50.936;5.334;2022-08-05T15:24:40;2.67;;;1.00;;
25023;SDS011;13033;50.936;5.334;2022-08-05T15:27:06;2.78;;;0.70;;
25023;SDS011;13033;50.936;5.334;2022-08-05T15:29:32;2.28;;;0.75;;
25023;SDS011;13033;50.936;5.334;2022-08-05T15:31:58;1.83;;;0.90;;
25023;SDS011;13033;50.936;5.334;2022-08-05T15:34:23;3.08;;;0.73;;
25023;SDS011;13033;50.936;5.334;2022-08-05T15:36:49;2.25;;;0.75;;
25023;SDS011;13033;50.936;5.334;2022-08-05T15:39:14;1.25;;;0.70;;
25023;SDS011;13033;50.936;5.334;2022-08-05T15:41:40;1.92;;;0.70;;